Time,TemperatureF,DewpointF,PressureIn,WindDirection,WindDirectionDegrees,WindSpeedMPH,WindSpeedGustMPH,Humidity,HourlyPrecipIn,Conditions,Clouds,dailyrainin,SoftwareType,DateUTC
2013-03-09 00:02:00,43.3,39.0,30.09,NNE,28,0.0,0.0,86,0.00,,,0.00,weatherlink.com 1.10,2013-03-09 08:02:00,
2013-03-09 00:18:00,43.2,39.0,30.10,NNE,26,0.0,1.0,84,0.00,,,0.00,weatherlink.com 1.10,2013-03-09 08:18:00,
2013-03-09 00:33:00,42.9,38.0,30.10,NNE,27,0.0,2.0,84,0.00,,,0.00,weatherlink.com 1.10,2013-03-09 08:33:00,
2013-03-09 00:48:00,42.7,39.0,30.11,NNE,28,0.0,0.0,85,0.00,,,0.00,weatherlink.com 1.10,2013-03-09 08:48:00,
2013-03-09 01:03:00,42.7,39.0,30.12,NNE,30,0.0,1.0,85,0.00,,,0.00,weatherlink.com 1.10,2013-03-09 09:03:00,
2013-03-09 01:18:00,42.6,39.0,30.13,NNE,20,1.0,2.0,86,0.00,,,0.00,weatherlink.com 1.10,2013-03-09 09:18:00,
2013-03-09 01:33:00,42.5,39.0,30.13,NNE,16,0.0,1.0,86,0.00,,,0.00,weatherlink.com 1.10,2013-03-09 09:33:00,
2013-03-09 01:48:00,42.0,38.0,30.13,NNE,17,0.0,0.0,87,0.00,,,0.00,weatherlink.com 1.10,2013-03-09 09:48:00,
2013-03-09 02:03:00,41.0,38.0,30.13,NNE,30,0.0,1.0,88,0.00,,,0.00,weatherlink.com 1.10,2013-03-09 10:03:00,
2013-03-09 02:18:00,40.4,38.0,30.12,NNE,30,0.0,1.0,89,0.00,,,0.00,weatherlink.com 1.10,2013-03-09 10:18:00,
2013-03-09 02:33:00,40.6,38.0,30.13,North,11,0.0,2.0,89,0.00,,,0.00,weatherlink.com 1.10,2013-03-09 10:33:00,
2013-03-09 02:48:00,41.4,38.0,30.13,NNE,24,0.0,2.0,88,0.00,,,0.00,weatherlink.com 1.10,2013-03-09 10:48:00,
2013-03-09 03:03:00,42.0,38.0,30.13,NNE,25,0.0,1.0,86,0.00,,,0.00,weatherlink.com 1.10,2013-03-09 11:03:00,
2013-03-09 03:18:00,42.2,38.0,30.14,NNE,17,1.0,3.0,85,0.00,,,0.00,weatherlink.com 1.10,2013-03-09 11:18:00,
2013-03-09 03:33:00,42.1,38.0,30.15,NNE,21,0.0,0.0,86,0.00,,,0.00,weatherlink.com 1.10,2013-03-09 11:33:00,
2013-03-09 03:48:00,42.2,39.0,30.16,NNE,23,0.0,0.0,87,0.00,,,0.00,weatherlink.com 1.10,2013-03-09 11:48:00,
2013-03-09 04:03:00,42.0,39.0,30.17,NNE,25,0.0,0.0,88,0.00,,,0.00,weatherlink.com 1.10,2013-03-09 12:03:00,
2013-03-09 04:18:00,42.2,39.0,30.18,NNE,27,0.0,0.0,88,0.00,,,0.00,weatherlink.com 1.10,2013-03-09 12:18:00,
2013-03-09 04:33:00,41.8,39.0,30.18,NNE,29,0.0,0.0,88,0.00,,,0.00,weatherlink.com 1.10,2013-03-09 12:33:00,
2013-03-09 04:48:00,41.1,38.0,30.20,NNE,24,0.0,2.0,89,0.00,,,0.00,weatherlink.com 1.10,2013-03-09 12:48:00,
2013-03-09 05:03:00,40.7,38.0,30.21,NNE,19,0.0,0.0,90,0.00,,,0.00,weatherlink.com 1.10,2013-03-09 13:03:00,
2013-03-09 05:18:00,40.9,39.0,30.22,NNE,28,0.0,2.0,91,0.00,,,0.00,weatherlink.com 1.10,2013-03-09 13:18:00,
2013-03-09 05:33:00,41.0,39.0,30.23,NNE,33,0.0,0.0,91,0.00,,,0.00,weatherlink.com 1.10,2013-03-09 13:33:00,
2013-03-09 05:48:00,40.3,38.0,30.23,NE,37,0.0,1.0,91,0.00,,,0.00,weatherlink.com 1.10,2013-03-09 13:48:00,
2013-03-09 06:03:00,40.1,38.0,30.25,NNE,28,0.0,3.0,92,0.00,,,0.00,weatherlink.com 1.10,2013-03-09 14:03:00,
2013-03-09 06:18:00,39.8,38.0,30.24,NE,40,0.0,3.0,93,0.00,,,0.00,weatherlink.com 1.10,2013-03-09 14:18:00,
2013-03-09 06:33:00,39.8,38.0,30.25,NE,34,0.0,1.0,93,0.00,,,0.00,weatherlink.com 1.10,2013-03-09 14:33:00,
2013-03-09 06:48:00,39.7,38.0,30.25,NNE,13,0.0,1.0,93,0.00,,,0.00,weatherlink.com 1.10,2013-03-09 14:48:00,
2013-03-09 07:03:00,39.6,38.0,30.25,NNE,28,0.0,0.0,92,0.00,,,0.00,weatherlink.com 1.10,2013-03-09 15:03:00,
2013-03-09 07:19:00,39.0,37.0,30.25,NNE,24,0.0,2.0,93,0.00,,,0.00,weatherlink.com 1.10,2013-03-09 15:19:00,
2013-03-09 07:34:00,39.6,38.0,30.26,North,349,0.0,1.0,93,0.00,,,0.00,weatherlink.com 1.10,2013-03-09 15:34:00,
2013-03-09 07:49:00,40.4,39.0,30.27,WSW,241,0.0,3.0,93,0.00,,,0.00,weatherlink.com 1.10,2013-03-09 15:49:00,
2013-03-09 08:04:00,41.8,39.0,30.27,NNE,26,0.0,0.0,91,0.00,,,0.00,weatherlink.com 1.10,2013-03-09 16:04:00,
2013-03-09 08:19:00,43.6,41.0,30.28,NE,37,6.0,6.0,89,0.00,,,0.00,weatherlink.com 1.10,2013-03-09 16:19:00,
2013-03-09 08:34:00,45.1,41.0,30.29,NNE,23,0.0,5.0,86,0.00,,,0.00,weatherlink.com 1.10,2013-03-09 16:34:00,
2013-03-09 08:49:00,46.8,42.0,30.28,NE,36,0.0,4.0,82,0.00,,,0.00,weatherlink.com 1.10,2013-03-09 16:49:00,
2013-03-09 09:04:00,48.0,43.0,30.28,NE,35,0.0,5.0,82,0.00,,,0.00,weatherlink.com 1.10,2013-03-09 17:04:00,
2013-03-09 09:19:00,48.7,43.0,30.29,SW,225,4.0,5.0,81,0.00,,,0.00,weatherlink.com 1.10,2013-03-09 17:19:00,
2013-03-09 09:34:00,50.1,45.0,30.30,SW,217,7.0,7.0,81,0.00,,,0.00,weatherlink.com 1.10,2013-03-09 17:34:00,
2013-03-09 09:49:00,50.9,46.0,30.30,SSE,165,3.0,9.0,82,0.00,,,0.00,weatherlink.com 1.10,2013-03-09 17:49:00,
2013-03-09 10:04:00,52.6,45.0,30.30,SSW,206,5.0,7.0,75,0.00,,,0.00,weatherlink.com 1.10,2013-03-09 18:04:00,
2013-03-09 10:19:00,53.0,45.0,30.30,South,178,5.0,7.0,74,0.00,,,0.00,weatherlink.com 1.10,2013-03-09 18:19:00,
2013-03-09 10:34:00,53.6,47.0,30.30,WSW,240,0.0,8.0,79,0.00,,,0.00,weatherlink.com 1.10,2013-03-09 18:34:00,
2013-03-09 10:49:00,55.1,48.0,30.30,SW,215,6.0,7.0,77,0.00,,,0.00,weatherlink.com 1.10,2013-03-09 18:49:00,
2013-03-09 11:04:00,54.4,47.0,30.31,South,186,5.0,8.0,75,0.00,,,0.00,weatherlink.com 1.10,2013-03-09 19:04:00,
2013-03-09 11:19:00,56.1,48.0,30.31,SW,216,8.0,9.0,73,0.00,,,0.00,weatherlink.com 1.10,2013-03-09 19:19:00,
2013-03-09 11:34:00,54.9,48.0,30.31,South,182,5.0,10.0,78,0.00,,,0.00,weatherlink.com 1.10,2013-03-09 19:34:00,
2013-03-09 11:49:00,55.7,49.0,30.32,SW,215,6.0,10.0,78,0.00,,,0.00,weatherlink.com 1.10,2013-03-09 19:49:00,
2013-03-09 12:04:00,56.8,49.0,30.32,South,182,9.0,10.0,74,0.00,,,0.00,weatherlink.com 1.10,2013-03-09 20:04:00,
2013-03-09 12:19:00,59.0,50.0,30.32,SW,227,5.0,8.0,72,0.00,,,0.00,weatherlink.com 1.10,2013-03-09 20:19:00,
2013-03-09 12:34:00,57.9,50.0,30.31,SSW,192,5.0,9.0,74,0.00,,,0.00,weatherlink.com 1.10,2013-03-09 20:34:00,
2013-03-09 12:49:00,59.4,51.0,30.30,SW,230,4.0,7.0,74,0.00,,,0.00,weatherlink.com 1.10,2013-03-09 20:49:00,
2013-03-09 13:04:00,58.2,50.0,30.30,SSW,192,6.0,7.0,73,0.00,,,0.00,weatherlink.com 1.10,2013-03-09 21:04:00,
2013-03-09 13:19:00,56.8,49.0,30.30,South,172,6.0,10.0,76,0.00,,,0.00,weatherlink.com 1.10,2013-03-09 21:19:00,
2013-03-09 13:34:00,58.2,50.0,30.30,South,190,7.0,8.0,75,0.00,,,0.00,weatherlink.com 1.10,2013-03-09 21:34:00,
2013-03-09 13:49:00,60.4,51.0,30.30,SSW,202,7.0,8.0,72,0.00,,,0.00,weatherlink.com 1.10,2013-03-09 21:49:00,
2013-03-09 14:05:00,60.5,50.0,30.30,SW,223,3.0,9.0,69,0.00,,,0.00,weatherlink.com 1.10,2013-03-09 22:05:00,
2013-03-09 14:20:00,61.8,50.0,30.30,SW,235,3.0,9.0,65,0.00,,,0.00,weatherlink.com 1.10,2013-03-09 22:20:00,
2013-03-09 14:35:00,63.1,50.0,30.29,WSW,240,3.0,7.0,63,0.00,,,0.00,weatherlink.com 1.10,2013-03-09 22:35:00,
2013-03-09 14:50:00,63.5,51.0,30.29,SW,230,2.0,7.0,63,0.00,,,0.00,weatherlink.com 1.10,2013-03-09 22:50:00,
2013-03-09 15:05:00,60.7,50.0,30.29,NE,45,2.0,7.0,67,0.00,,,0.00,weatherlink.com 1.10,2013-03-09 23:05:00,
2013-03-09 15:20:00,61.4,49.0,30.28,SSW,201,5.0,8.0,63,0.00,,,0.00,weatherlink.com 1.10,2013-03-09 23:20:00,
2013-03-09 15:35:00,62.9,50.0,30.28,SSW,211,3.0,5.0,63,0.00,,,0.00,weatherlink.com 1.10,2013-03-09 23:35:00,
2013-03-09 15:50:00,65.1,49.0,30.28,South,188,1.0,5.0,56,0.00,,,0.00,weatherlink.com 1.10,2013-03-09 23:50:00,
2013-03-09 16:05:00,66.0,49.0,30.28,WNW,292,0.0,4.0,55,0.00,,,0.00,weatherlink.com 1.10,2013-03-10 00:05:00,
2013-03-09 16:20:00,66.4,48.0,30.28,SSW,211,4.0,4.0,52,0.00,,,0.00,weatherlink.com 1.10,2013-03-10 00:20:00,
2013-03-09 16:35:00,62.9,48.0,30.28,SSE,159,1.0,6.0,59,0.00,,,0.00,weatherlink.com 1.10,2013-03-10 00:35:00,
2013-03-09 16:50:00,62.6,47.0,30.28,SW,225,3.0,6.0,58,0.00,,,0.00,weatherlink.com 1.10,2013-03-10 00:50:00,
2013-03-09 17:05:00,61.8,46.0,30.29,SSW,197,2.0,5.0,57,0.00,,,0.00,weatherlink.com 1.10,2013-03-10 01:05:00,
2013-03-09 17:20:00,56.3,47.0,30.30,SE,144,0.0,8.0,72,0.00,,,0.00,weatherlink.com 1.10,2013-03-10 01:20:00,
2013-03-09 17:35:00,55.6,46.0,30.30,North,355,0.0,4.0,71,0.00,,,0.00,weatherlink.com 1.10,2013-03-10 01:35:00,
2013-03-09 17:50:00,54.6,46.0,30.30,NNE,31,0.0,2.0,74,0.00,,,0.00,weatherlink.com 1.10,2013-03-10 01:50:00,
2013-03-09 18:05:00,53.2,45.0,30.31,NNE,23,0.0,2.0,75,0.00,,,0.00,weatherlink.com 1.10,2013-03-10 02:05:00,
2013-03-09 18:20:00,51.5,45.0,30.31,NE,38,0.0,4.0,78,0.00,,,0.00,weatherlink.com 1.10,2013-03-10 02:20:00,
2013-03-09 18:35:00,51.0,44.0,30.32,North,10,0.0,0.0,76,0.00,,,0.00,weatherlink.com 1.10,2013-03-10 02:35:00,
2013-03-09 18:50:00,50.4,43.0,30.33,ENE,72,1.0,8.0,77,0.00,,,0.00,weatherlink.com 1.10,2013-03-10 02:50:00,
2013-03-09 19:05:00,49.1,44.0,30.32,NE,45,4.0,6.0,81,0.00,,,0.00,weatherlink.com 1.10,2013-03-10 03:05:00,
2013-03-09 19:20:00,48.6,43.0,30.32,NE,38,1.0,7.0,82,0.00,,,0.00,weatherlink.com 1.10,2013-03-10 03:20:00,
2013-03-09 19:35:00,48.5,43.0,30.33,NE,38,0.0,6.0,82,0.00,,,0.00,weatherlink.com 1.10,2013-03-10 03:35:00,
2013-03-09 19:50:00,48.1,43.0,30.34,SW,234,0.0,4.0,82,0.00,,,0.00,weatherlink.com 1.10,2013-03-10 03:50:00,
2013-03-09 20:05:00,47.7,43.0,30.34,NE,38,0.0,3.0,82,0.00,,,0.00,weatherlink.com 1.10,2013-03-10 04:05:00,
2013-03-09 20:20:00,47.4,43.0,30.34,NE,40,1.0,3.0,83,0.00,,,0.00,weatherlink.com 1.10,2013-03-10 04:20:00,
2013-03-09 20:35:00,46.0,42.0,30.34,ENE,59,5.0,7.0,87,0.00,,,0.00,weatherlink.com 1.10,2013-03-10 04:35:00,
2013-03-09 20:50:00,45.3,42.0,30.34,NNE,17,1.0,8.0,89,0.00,,,0.00,weatherlink.com 1.10,2013-03-10 04:50:00,
2013-03-09 21:05:00,45.4,42.0,30.34,NNE,25,0.0,5.0,89,0.00,,,0.00,weatherlink.com 1.10,2013-03-10 05:05:00,
2013-03-09 21:20:00,45.5,42.0,30.34,NNE,26,0.0,2.0,87,0.00,,,0.00,weatherlink.com 1.10,2013-03-10 05:20:00,
2013-03-09 21:35:00,46.7,42.0,30.34,NNE,32,0.0,5.0,84,0.00,,,0.00,weatherlink.com 1.10,2013-03-10 05:35:00,
2013-03-09 21:50:00,46.1,42.0,30.34,NNE,31,0.0,5.0,85,0.00,,,0.00,weatherlink.com 1.10,2013-03-10 05:50:00,
2013-03-09 22:05:00,45.0,42.0,30.35,NNE,27,0.0,3.0,88,0.00,,,0.00,weatherlink.com 1.10,2013-03-10 06:05:00,
2013-03-09 22:20:00,44.5,42.0,30.35,NNE,23,1.0,3.0,90,0.00,,,0.00,weatherlink.com 1.10,2013-03-10 06:20:00,
2013-03-09 22:35:00,45.1,42.0,30.35,North,5,0.0,3.0,89,0.00,,,0.00,weatherlink.com 1.10,2013-03-10 06:35:00,
2013-03-09 22:50:00,45.1,42.0,30.35,NNE,27,0.0,1.0,88,0.00,,,0.00,weatherlink.com 1.10,2013-03-10 06:50:00,
2013-03-09 23:05:00,44.2,42.0,30.33,NNE,20,4.0,4.0,90,0.00,,,0.00,weatherlink.com 1.10,2013-03-10 07:05:00,
2013-03-09 23:20:00,43.7,41.0,30.34,North,5,0.0,3.0,90,0.00,,,0.00,weatherlink.com 1.10,2013-03-10 07:20:00,
2013-03-09 23:35:00,43.4,41.0,30.34,NNE,32,0.0,4.0,90,0.00,,,0.00,weatherlink.com 1.10,2013-03-10 07:35:00,
2013-03-09 23:50:00,42.7,40.0,30.34,NNE,32,0.0,8.0,91,0.00,,,0.00,weatherlink.com 1.10,2013-03-10 07:50:00,